createdAt,value
2018-03-18T00:01:23.784Z,99.90
2018-03-18T00:03:51.286Z,99.90
2018-03-18T00:06:19.538Z,99.90
2018-03-18T00:08:47.016Z,99.90
2018-03-18T00:11:15.993Z,99.90
2018-03-18T00:13:43.508Z,99.90
2018-03-18T00:16:11.011Z,99.90
2018-03-18T00:18:38.526Z,99.90
2018-03-18T00:21:06.035Z,99.90
2018-03-18T00:23:33.551Z,99.90
2018-03-18T00:26:01.056Z,99.90
2018-03-18T00:28:28.545Z,99.90
2018-03-18T00:30:56.146Z,99.90
2018-03-18T00:33:23.774Z,99.90
2018-03-18T00:35:52.053Z,99.90
2018-03-18T00:38:19.556Z,99.90
2018-03-18T00:40:47.045Z,99.90
2018-03-18T00:43:14.650Z,99.90
2018-03-18T00:45:42.133Z,99.90
2018-03-18T00:48:09.649Z,99.90
2018-03-18T00:50:37.948Z,99.90
2018-03-18T00:53:12.905Z,99.90
2018-03-18T00:55:40.411Z,99.90
2018-03-18T00:58:08.725Z,99.90
2018-03-18T01:00:36.248Z,99.90
2018-03-18T01:03:03.794Z,99.90
2018-03-18T01:05:31.360Z,99.90
2018-03-18T01:07:58.874Z,99.90
2018-03-18T01:10:26.380Z,99.90
2018-03-18T01:12:53.873Z,99.90
2018-03-18T01:15:22.115Z,99.90
2018-03-18T01:17:50.407Z,99.90
2018-03-18T01:20:18.704Z,99.90
2018-03-18T01:22:46.941Z,99.90
2018-03-18T01:25:15.198Z,99.90
2018-03-18T01:27:42.654Z,99.90
2018-03-18T01:30:10.177Z,99.90
2018-03-18T01:32:37.647Z,99.90
2018-03-18T01:35:05.267Z,99.90
2018-03-18T01:37:32.762Z,99.90
2018-03-18T01:40:00.262Z,99.90
2018-03-18T01:42:27.762Z,99.90
2018-03-18T01:44:55.318Z,99.90
2018-03-18T01:47:22.824Z,99.90
2018-03-18T01:49:50.361Z,99.90
2018-03-18T01:52:17.849Z,99.90
2018-03-18T01:54:45.335Z,99.90
2018-03-18T01:57:12.855Z,99.90
2018-03-18T01:59:40.393Z,99.90
2018-03-18T02:02:08.713Z,99.90
2018-03-18T02:04:36.286Z,99.90
2018-03-18T02:07:04.766Z,99.90
2018-03-18T02:09:32.283Z,99.90
2018-03-18T02:11:59.924Z,99.90
2018-03-18T02:14:27.498Z,99.90
2018-03-18T02:16:55.037Z,99.90
2018-03-18T02:19:22.522Z,99.90
2018-03-18T02:21:49.996Z,99.90
2018-03-18T02:24:17.503Z,99.90
2018-03-18T02:26:45.789Z,99.90
2018-03-18T02:29:14.086Z,99.90
2018-03-18T02:31:41.666Z,99.90
2018-03-18T02:34:09.208Z,99.90
2018-03-18T02:36:37.484Z,99.90
2018-03-18T02:39:05.782Z,99.90
2018-03-18T02:41:33.338Z,99.90
2018-03-18T02:44:00.861Z,99.90
2018-03-18T02:46:28.454Z,99.90
2018-03-18T02:48:55.949Z,99.90
2018-03-18T02:51:23.490Z,99.90
2018-03-18T02:53:51.063Z,99.90
2018-03-18T02:56:18.589Z,99.90
2018-03-18T02:58:46.123Z,99.90
2018-03-18T03:01:14.443Z,99.90
2018-03-18T03:03:41.955Z,99.90
2018-03-18T03:06:09.489Z,99.90
2018-03-18T03:08:36.975Z,99.90
2018-03-18T03:11:04.551Z,99.90
2018-03-18T03:13:32.071Z,99.90
2018-03-18T03:15:59.574Z,99.90
2018-03-18T03:18:27.083Z,99.90
2018-03-18T03:20:54.596Z,99.90
2018-03-18T03:23:22.052Z,99.90
2018-03-18T03:25:49.525Z,99.90
2018-03-18T03:28:16.980Z,99.90
2018-03-18T03:30:44.483Z,99.90
2018-03-18T03:33:12.003Z,99.90
2018-03-18T03:35:39.517Z,99.90
2018-03-18T03:38:07.818Z,99.90
2018-03-18T03:40:36.084Z,99.90
2018-03-18T03:43:05.064Z,99.90
2018-03-18T03:45:32.547Z,99.90
2018-03-18T03:48:00.828Z,99.90
2018-03-18T03:50:29.831Z,99.90
2018-03-18T03:52:58.132Z,99.90
2018-03-18T03:55:25.629Z,99.90
2018-03-18T03:57:53.108Z,99.90
2018-03-18T04:00:20.622Z,99.90
2018-03-18T04:02:48.103Z,99.90
2018-03-18T04:05:15.607Z,99.90
2018-03-18T04:07:43.111Z,99.90
2018-03-18T04:10:10.650Z,99.90
2018-03-18T04:12:38.129Z,99.90
2018-03-18T04:15:05.622Z,99.90
2018-03-18T04:17:33.906Z,99.90
2018-03-18T04:20:02.138Z,99.90
2018-03-18T04:22:29.692Z,99.90
2018-03-18T04:24:57.315Z,99.90
2018-03-18T04:27:25.573Z,99.90
2018-03-18T04:29:53.959Z,99.90
2018-03-18T04:32:22.230Z,99.90
2018-03-18T04:34:49.685Z,99.90
2018-03-18T04:37:17.197Z,99.90
2018-03-18T04:39:44.696Z,99.90
2018-03-18T04:42:12.185Z,99.90
2018-03-18T04:44:39.737Z,99.90
2018-03-18T04:47:08.064Z,99.90
2018-03-18T04:49:35.557Z,99.90
2018-03-18T04:52:03.076Z,99.90
2018-03-18T04:54:30.561Z,99.90
2018-03-18T04:56:58.049Z,99.90
2018-03-18T04:59:26.344Z,99.90
2018-03-18T05:01:54.605Z,99.90
2018-03-18T05:07:15.986Z,99.90
2018-03-18T05:09:43.461Z,99.90
2018-03-18T05:12:10.917Z,99.90
2018-03-18T05:14:38.373Z,99.90
2018-03-18T05:17:05.830Z,99.90
2018-03-18T05:19:33.294Z,99.90
2018-03-18T05:22:00.764Z,99.90
2018-03-18T05:24:28.226Z,99.90
2018-03-18T05:26:55.679Z,99.90
2018-03-18T05:29:23.288Z,99.90
2018-03-18T05:31:50.765Z,99.90
2018-03-18T05:34:18.222Z,99.90
2018-03-18T05:36:45.710Z,99.90
2018-03-18T05:39:13.161Z,99.90
2018-03-18T05:41:40.630Z,99.90
2018-03-18T05:44:08.101Z,99.90
2018-03-18T05:46:35.577Z,99.90
2018-03-18T05:49:03.813Z,99.90
2018-03-18T05:51:31.285Z,99.90
2018-03-18T05:53:58.757Z,99.90
2018-03-18T05:56:27.005Z,99.90
2018-03-18T05:58:54.457Z,99.90
2018-03-18T06:01:21.937Z,99.90
2018-03-18T06:03:49.498Z,99.90
2018-03-18T06:06:16.969Z,99.90
2018-03-18T06:08:45.196Z,99.90
2018-03-18T06:11:12.656Z,99.90
2018-03-18T06:13:40.136Z,99.90
2018-03-18T06:16:07.603Z,99.90
2018-03-18T06:18:35.069Z,99.90
2018-03-18T06:21:04.042Z,99.90
2018-03-18T06:23:31.502Z,99.90
2018-03-18T06:25:58.994Z,99.90
2018-03-18T06:28:26.459Z,99.90
2018-03-18T06:30:54.697Z,99.90
2018-03-18T06:33:22.190Z,99.90
2018-03-18T06:35:50.417Z,99.90
2018-03-18T06:38:17.877Z,99.90
2018-03-18T06:40:45.350Z,99.90
2018-03-18T06:43:12.847Z,99.90
2018-03-18T06:45:41.098Z,99.90
2018-03-18T06:48:08.549Z,99.90
2018-03-18T06:50:36.021Z,99.90
2018-03-18T06:53:03.526Z,99.90
2018-03-18T06:55:30.987Z,99.90
2018-03-18T06:57:58.474Z,99.90
2018-03-18T07:00:25.934Z,99.90
2018-03-18T07:02:53.508Z,99.90
2018-03-18T07:05:20.970Z,99.90
2018-03-18T07:07:48.419Z,99.90
2018-03-18T07:10:15.890Z,99.90
2018-03-18T07:12:43.363Z,99.90
2018-03-18T07:15:11.593Z,99.90
2018-03-18T07:17:39.065Z,99.90
2018-03-18T07:20:06.524Z,99.90
2018-03-18T07:22:33.986Z,99.90
2018-03-18T07:25:01.445Z,99.90
2018-03-18T07:27:28.918Z,99.90
2018-03-18T07:29:58.150Z,99.90
2018-03-18T07:32:25.660Z,99.90
2018-03-18T07:34:53.282Z,99.90
2018-03-18T07:37:20.786Z,99.90
2018-03-18T07:39:48.269Z,99.90
2018-03-18T07:42:16.552Z,99.90
2018-03-18T07:44:44.846Z,99.90
2018-03-18T07:47:12.370Z,99.90
2018-03-18T07:49:39.804Z,99.90
2018-03-18T07:52:07.280Z,99.90
2018-03-18T07:54:34.746Z,99.90
2018-03-18T07:57:02.216Z,99.90
2018-03-18T07:59:30.453Z,99.90
2018-03-18T08:01:57.919Z,99.90
2018-03-18T08:04:25.385Z,99.90
2018-03-18T08:06:52.852Z,96.00
2018-03-18T08:09:20.301Z,96.50
2018-03-18T08:11:47.768Z,95.60
2018-03-18T08:14:16.087Z,96.30
2018-03-18T08:16:43.485Z,96.30
2018-03-18T08:19:10.957Z,92.30
2018-03-18T08:21:38.437Z,91.10
2018-03-18T08:24:06.676Z,91.00
2018-03-18T08:26:34.462Z,90.50
2018-03-18T08:29:02.712Z,85.30
2018-03-18T08:31:30.185Z,84.50
2018-03-18T08:33:57.678Z,84.80
2018-03-18T08:36:25.149Z,82.50
2018-03-18T08:38:52.614Z,82.10
2018-03-18T08:41:20.094Z,82.50
2018-03-18T08:43:47.565Z,79.60
2018-03-18T08:46:15.046Z,87.00
2018-03-18T08:48:43.282Z,74.00
2018-03-18T08:51:10.755Z,73.20
2018-03-18T08:53:38.209Z,78.50
2018-03-18T08:56:05.701Z,75.80
2018-03-18T08:58:33.932Z,75.40
2018-03-18T09:01:01.446Z,75.70
2018-03-18T09:03:29.761Z,73.60
2018-03-18T09:05:57.221Z,73.40
2018-03-18T09:08:24.717Z,79.10
2018-03-18T09:10:52.177Z,70.70
2018-03-18T09:13:19.638Z,77.60
2018-03-18T09:15:47.976Z,71.50
2018-03-18T09:18:15.475Z,71.10
2018-03-18T09:20:42.926Z,74.40
2018-03-18T09:23:10.403Z,77.80
2018-03-18T09:25:38.658Z,76.90
2018-03-18T09:28:06.159Z,77.10
2018-03-18T09:30:34.402Z,82.70
2018-03-18T09:33:01.913Z,83.00
2018-03-18T09:35:29.375Z,79.50
2018-03-18T09:37:56.851Z,83.00
2018-03-18T09:40:24.329Z,80.10
2018-03-18T09:42:51.795Z,84.80
2018-03-18T09:45:19.249Z,82.90
2018-03-18T09:47:46.738Z,85.10
2018-03-18T09:50:14.974Z,80.10
2018-03-18T09:52:42.438Z,80.00
2018-03-18T09:55:09.928Z,82.60
2018-03-18T09:57:38.153Z,90.40
2018-03-18T10:02:56.433Z,90.30
2018-03-18T10:05:23.914Z,81.50
2018-03-18T10:07:52.165Z,81.00
2018-03-18T10:10:19.646Z,80.30
2018-03-18T10:12:47.126Z,82.70
2018-03-18T10:15:15.349Z,82.90
2018-03-18T10:17:42.833Z,82.90
2018-03-18T10:20:10.331Z,84.50
2018-03-18T10:22:38.542Z,85.00
2018-03-18T10:25:06.003Z,84.90
2018-03-18T10:27:33.497Z,90.70
2018-03-18T10:30:01.738Z,84.90
2018-03-18T10:32:29.235Z,85.50
2018-03-18T10:34:57.486Z,84.10
2018-03-18T10:37:24.946Z,82.90
2018-03-18T10:39:52.523Z,86.10
2018-03-18T10:42:19.993Z,93.90
2018-03-18T10:44:48.246Z,86.30
2018-03-18T10:47:15.767Z,86.50
2018-03-18T10:49:43.209Z,92.40
2018-03-18T10:52:10.662Z,85.70
2018-03-18T10:54:38.134Z,82.50
2018-03-18T10:57:05.630Z,88.00
2018-03-18T10:59:33.119Z,84.20
2018-03-18T11:02:05.266Z,89.10
2018-03-18T11:04:32.727Z,88.50
2018-03-18T11:07:00.181Z,83.80
2018-03-18T11:09:27.670Z,86.00
2018-03-18T11:11:55.897Z,80.30
2018-03-18T11:14:23.387Z,81.00
2018-03-18T11:16:50.849Z,90.60
2018-03-18T11:19:19.099Z,85.20
2018-03-18T11:21:46.565Z,85.00
2018-03-18T11:24:14.036Z,82.80
2018-03-18T11:26:42.385Z,82.00
2018-03-18T11:29:09.918Z,82.70
2018-03-18T11:31:37.414Z,82.40
2018-03-18T11:34:04.879Z,83.40
2018-03-18T11:36:32.366Z,83.20
2018-03-18T11:38:59.831Z,80.60
2018-03-18T11:41:28.065Z,81.80
2018-03-18T11:43:55.535Z,81.10
2018-03-18T11:46:23.004Z,81.10
2018-03-18T11:48:50.458Z,80.60
2018-03-18T11:51:17.961Z,83.10
2018-03-18T11:53:45.461Z,81.50
2018-03-18T11:56:12.943Z,78.20
2018-03-18T11:58:41.183Z,76.00
2018-03-18T12:01:08.740Z,75.90
2018-03-18T12:03:36.223Z,79.80
2018-03-18T12:06:03.711Z,82.20
2018-03-18T12:08:43.198Z,83.80
2018-03-18T12:11:10.715Z,83.00
2018-03-18T12:13:39.002Z,80.40
2018-03-18T12:16:07.255Z,79.70
2018-03-18T12:18:34.745Z,79.90
2018-03-18T12:21:02.281Z,79.90
2018-03-18T12:23:30.569Z,79.30
2018-03-18T12:25:58.920Z,78.90
2018-03-18T12:28:26.394Z,79.10
2018-03-18T12:30:54.666Z,78.70
2018-03-18T12:33:22.148Z,78.80
2018-03-18T12:35:50.383Z,80.10
2018-03-18T12:38:17.886Z,79.90
2018-03-18T12:40:50.873Z,82.30
2018-03-18T12:43:27.217Z,82.50
2018-03-18T12:45:54.698Z,91.30
2018-03-18T12:48:22.229Z,82.40
2018-03-18T12:50:49.711Z,84.50
2018-03-18T12:53:17.961Z,81.10
2018-03-18T12:55:45.440Z,81.40
2018-03-18T12:58:13.713Z,82.50
2018-03-18T13:00:41.970Z,81.00
2018-03-18T13:03:09.454Z,81.40
2018-03-18T13:05:37.694Z,80.40
2018-03-18T13:08:05.148Z,80.90
2018-03-18T13:10:32.657Z,77.80
2018-03-18T13:13:00.921Z,77.80
2018-03-18T13:15:29.189Z,76.10
2018-03-18T13:17:56.662Z,76.10
2018-03-18T13:20:24.891Z,77.80
2018-03-18T13:22:52.366Z,77.70
2018-03-18T13:25:19.842Z,76.10
2018-03-18T13:27:47.308Z,76.10
2018-03-18T13:30:14.767Z,73.40
2018-03-18T13:32:43.002Z,73.50
2018-03-18T13:35:10.460Z,73.50
2018-03-18T13:37:38.747Z,81.00
2018-03-18T13:40:06.227Z,81.40
2018-03-18T13:42:33.682Z,73.90
2018-03-18T13:45:01.946Z,73.50
2018-03-18T13:47:29.547Z,73.50
2018-03-18T13:49:57.058Z,73.70
2018-03-18T13:52:24.528Z,73.60
2018-03-18T13:54:52.031Z,73.50
2018-03-18T13:57:19.523Z,70.60
2018-03-18T13:59:46.996Z,70.60
2018-03-18T14:02:14.456Z,74.80
2018-03-18T14:04:41.924Z,79.20
2018-03-18T14:07:09.397Z,73.00
2018-03-18T14:09:37.672Z,72.60
2018-03-18T14:12:05.957Z,70.70
2018-03-18T14:14:34.177Z,74.40
2018-03-18T14:17:01.651Z,74.00
2018-03-18T14:19:29.116Z,77.20
2018-03-18T14:21:56.590Z,74.70
2018-03-18T14:24:24.048Z,73.30
2018-03-18T14:26:51.609Z,75.00
2018-03-18T14:29:19.075Z,73.60
2018-03-18T14:31:47.351Z,72.90
2018-03-18T14:34:14.826Z,72.80
2018-03-18T14:36:43.047Z,68.80
2018-03-18T14:39:10.527Z,68.90
2018-03-18T14:41:37.998Z,75.40
2018-03-18T14:44:05.463Z,71.80
2018-03-18T14:46:32.938Z,78.60
2018-03-18T14:49:01.197Z,74.60
2018-03-18T14:51:29.439Z,69.60
2018-03-18T14:53:56.962Z,68.80
2018-03-18T14:56:24.433Z,65.00
2018-03-18T14:58:51.881Z,71.10
2018-03-18T15:01:19.374Z,70.30
2018-03-18T15:03:46.839Z,72.60
2018-03-18T15:06:14.309Z,67.80
2018-03-18T15:08:41.800Z,66.40
2018-03-18T15:11:10.035Z,65.60
2018-03-18T15:13:37.546Z,65.30
2018-03-18T15:16:05.898Z,66.40
2018-03-18T15:18:33.358Z,67.30
2018-03-18T15:21:00.813Z,66.20
2018-03-18T15:23:28.297Z,68.50
2018-03-18T15:25:56.519Z,73.90
2018-03-18T15:28:23.994Z,74.00
2018-03-18T15:30:51.457Z,70.90
2018-03-18T15:33:18.965Z,68.30
2018-03-18T15:35:46.387Z,68.10
2018-03-18T15:38:13.832Z,68.20
2018-03-18T15:40:41.295Z,66.30
2018-03-18T15:43:08.745Z,67.10
2018-03-18T15:45:36.213Z,65.80
2018-03-18T15:48:05.184Z,71.00
2018-03-18T15:50:32.646Z,70.90
2018-03-18T15:53:00.111Z,70.20
2018-03-18T15:55:27.583Z,68.00
2018-03-18T15:57:55.038Z,66.80
2018-03-18T16:00:23.305Z,69.30
2018-03-18T16:02:50.863Z,69.40
2018-03-18T16:05:18.362Z,74.10
2018-03-18T16:07:46.592Z,67.90
2018-03-18T16:10:14.049Z,67.60
2018-03-18T16:12:41.505Z,69.20
2018-03-18T16:15:08.973Z,75.20
2018-03-18T16:17:36.495Z,71.00
2018-03-18T16:20:04.006Z,72.90
2018-03-18T16:22:31.499Z,69.10
2018-03-18T16:24:59.715Z,68.90
2018-03-18T16:27:27.195Z,68.90
2018-03-18T16:30:06.483Z,70.20
2018-03-18T16:32:33.967Z,71.40
2018-03-18T16:35:01.449Z,70.10
2018-03-18T16:37:28.914Z,68.50
2018-03-18T16:39:56.392Z,71.40
2018-03-18T16:42:24.629Z,70.60
2018-03-18T16:44:52.146Z,70.90
2018-03-18T16:47:19.687Z,69.00
2018-03-18T16:49:47.937Z,73.00
2018-03-18T16:52:15.494Z,73.00
2018-03-18T16:54:43.761Z,74.00
2018-03-18T16:57:11.219Z,74.00
2018-03-18T16:59:38.691Z,73.70
2018-03-18T17:02:06.220Z,73.80
2018-03-18T17:04:33.680Z,71.80
2018-03-18T17:07:01.196Z,71.10
2018-03-18T17:09:29.413Z,71.40
2018-03-18T17:11:56.899Z,71.60
2018-03-18T17:14:24.578Z,78.70
2018-03-18T17:16:52.108Z,82.10
2018-03-18T17:19:19.529Z,75.90
2018-03-18T17:21:47.766Z,78.80
2018-03-18T17:24:15.328Z,78.70
2018-03-18T17:26:43.655Z,80.00
2018-03-18T17:29:11.126Z,80.30
2018-03-18T17:31:38.602Z,80.90
2018-03-18T17:34:06.073Z,81.40
2018-03-18T17:36:33.591Z,77.20
2018-03-18T17:39:01.075Z,81.00
2018-03-18T17:41:28.562Z,83.80
2018-03-18T17:43:56.045Z,78.40
2018-03-18T17:46:36.186Z,80.50
2018-03-18T17:49:16.484Z,79.30
2018-03-18T17:51:56.054Z,79.40
2018-03-18T17:54:35.493Z,80.80
2018-03-18T17:57:02.954Z,78.50
2018-03-18T17:59:30.422Z,79.00
2018-03-18T18:01:58.696Z,79.30
2018-03-18T18:04:26.161Z,79.40
2018-03-18T18:06:53.638Z,83.20
2018-03-18T18:09:21.890Z,84.10
2018-03-18T18:11:49.344Z,84.10
2018-03-18T18:14:16.892Z,88.60
2018-03-18T18:16:44.313Z,84.00
2018-03-18T18:19:11.772Z,80.50
2018-03-18T18:21:39.278Z,82.10
2018-03-18T18:24:06.752Z,82.90
2018-03-18T18:26:34.473Z,81.10
2018-03-18T18:29:01.934Z,80.70
2018-03-18T18:31:29.408Z,81.80
2018-03-18T18:33:56.889Z,82.30
2018-03-18T18:36:24.381Z,81.30
2018-03-18T18:38:51.847Z,81.40
2018-03-18T18:41:19.356Z,81.20
2018-03-18T18:43:46.889Z,82.90
2018-03-18T18:46:14.355Z,80.50
2018-03-18T18:48:41.877Z,82.10
2018-03-18T18:51:09.380Z,83.10
2018-03-18T18:53:36.851Z,83.80
2018-03-18T18:56:04.359Z,85.60
2018-03-18T18:58:32.613Z,91.60
2018-03-18T19:01:00.911Z,92.30
2018-03-18T19:03:28.460Z,92.40
2018-03-18T19:05:56.728Z,92.80
2018-03-18T19:08:25.694Z,86.00
2018-03-18T19:10:53.197Z,85.90
2018-03-18T19:13:20.743Z,85.00
2018-03-18T19:15:48.992Z,86.30
2018-03-18T19:18:16.474Z,86.30
2018-03-18T19:20:44.015Z,89.30
2018-03-18T19:23:11.492Z,87.50
2018-03-18T19:25:39.586Z,91.70
2018-03-18T19:28:08.287Z,91.70
2018-03-18T19:30:35.750Z,91.70
2018-03-18T19:33:03.236Z,91.40
2018-03-18T19:35:30.709Z,92.30
2018-03-18T19:37:58.191Z,90.70
2018-03-18T19:40:26.942Z,93.90
2018-03-18T19:42:54.560Z,93.90
2018-03-18T19:45:22.076Z,92.70
2018-03-18T19:47:49.695Z,95.10
2018-03-18T19:50:17.174Z,94.40
2018-03-18T19:52:44.652Z,92.20
2018-03-18T19:55:12.130Z,90.90
2018-03-18T19:57:39.627Z,91.10
2018-03-18T20:00:07.128Z,95.50
2018-03-18T20:02:34.616Z,94.90
2018-03-18T20:05:02.865Z,91.50
2018-03-18T20:07:30.332Z,91.40
2018-03-18T20:09:57.828Z,93.60
2018-03-18T20:12:25.313Z,92.80
2018-03-18T20:14:52.785Z,90.50
2018-03-18T20:17:20.280Z,91.20
2018-03-18T20:19:48.514Z,92.40
2018-03-18T20:22:16.013Z,92.40
2018-03-18T20:24:43.478Z,91.90
2018-03-18T20:27:11.735Z,91.60
2018-03-18T20:29:39.233Z,91.60
2018-03-18T20:32:06.710Z,94.10
2018-03-18T20:34:34.195Z,92.20
2018-03-18T20:37:01.740Z,91.90
2018-03-18T20:39:29.213Z,95.90
2018-03-18T20:41:56.792Z,93.80
2018-03-18T20:44:24.278Z,92.80
2018-03-18T20:46:52.530Z,92.70
2018-03-18T20:49:23.408Z,92.60
2018-03-18T20:51:51.656Z,93.60
2018-03-18T20:54:19.957Z,94.40
2018-03-18T20:56:48.282Z,91.90
2018-03-18T20:59:15.772Z,91.50
2018-03-18T21:01:43.425Z,96.40
2018-03-18T21:04:10.883Z,92.60
2018-03-18T21:06:38.374Z,95.40
2018-03-18T21:09:06.599Z,96.10
2018-03-18T21:11:34.146Z,96.10
2018-03-18T21:14:02.518Z,95.10
2018-03-18T21:16:30.709Z,95.20
2018-03-18T21:18:58.176Z,95.20
2018-03-18T21:21:25.839Z,95.40
2018-03-18T21:23:53.317Z,96.50
2018-03-18T21:26:21.609Z,96.60
2018-03-18T21:28:49.880Z,96.60
2018-03-18T21:31:18.230Z,97.90
2018-03-18T21:33:45.707Z,97.80
2018-03-18T21:36:13.390Z,97.50
2018-03-18T21:38:41.654Z,96.60
2018-03-18T21:41:09.123Z,96.70
2018-03-18T21:43:37.359Z,94.80
2018-03-18T21:46:04.843Z,94.70
2018-03-18T21:48:32.399Z,93.20
2018-03-18T21:51:00.010Z,94.40
2018-03-18T21:53:27.490Z,96.30
2018-03-18T21:55:54.951Z,93.50
2018-03-18T21:58:22.681Z,95.80
2018-03-18T22:00:51.414Z,99.90
2018-03-18T22:03:19.023Z,99.90
2018-03-18T22:05:46.563Z,94.10
2018-03-18T22:08:14.980Z,94.30
2018-03-18T22:10:42.442Z,94.60
2018-03-18T22:13:09.944Z,93.30
2018-03-18T22:15:37.430Z,94.80
2018-03-18T22:18:05.667Z,95.40
2018-03-18T22:20:33.222Z,95.40
2018-03-18T22:23:01.029Z,96.20
2018-03-18T22:25:29.275Z,95.30
2018-03-18T22:27:56.733Z,95.30
2018-03-18T22:30:24.271Z,93.30
2018-03-18T22:32:51.796Z,96.80
2018-03-18T22:35:20.073Z,95.90
2018-03-18T22:37:48.000Z,96.00
2018-03-18T22:40:15.473Z,97.50
2018-03-18T22:42:42.950Z,97.00
2018-03-18T22:45:11.204Z,98.30
2018-03-18T22:47:38.708Z,98.60
2018-03-18T22:50:06.171Z,95.70
2018-03-18T22:52:33.737Z,94.60
2018-03-18T22:55:01.235Z,95.10
2018-03-18T22:57:28.707Z,94.60
2018-03-18T22:59:56.182Z,95.60
2018-03-18T23:02:24.422Z,97.40
2018-03-18T23:04:51.877Z,97.20
2018-03-18T23:07:19.382Z,96.00
2018-03-18T23:09:47.621Z,98.20
2018-03-18T23:12:15.170Z,98.20
2018-03-18T23:14:42.646Z,98.00
2018-03-18T23:17:10.101Z,97.00
2018-03-18T23:19:37.665Z,99.60
2018-03-18T23:22:05.134Z,97.80
2018-03-18T23:24:32.590Z,96.90
2018-03-18T23:27:00.054Z,98.00
2018-03-18T23:29:28.312Z,98.10
2018-03-18T23:31:55.801Z,98.10
2018-03-18T23:34:24.062Z,97.30
2018-03-18T23:36:51.538Z,97.30
2018-03-18T23:39:19.773Z,98.00
2018-03-18T23:41:47.318Z,98.00
2018-03-18T23:44:14.784Z,96.60
2018-03-18T23:46:42.277Z,97.30
2018-03-18T23:49:10.516Z,96.90
2018-03-18T23:54:32.053Z,98.30
2018-03-18T23:56:59.518Z,98.40
2018-03-18T23:59:27.011Z,96.80
